Time;durP1;ratioP1;P1;durP2;ratioP2;P2;SDS_P1;SDS_P2;PMS_P1;PMS_P2;Temp;Humidity;BMP_temperature;BMP_pressure;BME280_temperature;BME280_humidity;BME280_pressure;Samples;Min_cycle;Max_cycle;Signal;HPM_P1;HPM_P2
2022/03/29 00:02:30;;;;;;;0.87;0.87;;;;;;;;;;5018366;28;20917;-72
2022/03/29 00:05:18;;;;;;;1.73;0.93;;;;;;;;;;5028265;28;20582;-71
2022/03/29 00:08:06;;;;;;;0.70;0.70;;;;;;;;;;5024446;28;20213;-72
2022/03/29 00:10:53;;;;;;;0.90;0.90;;;;;;;;;;5029760;28;20295;-72
2022/03/29 00:13:39;;;;;;;0.90;0.90;;;;;;;;;;5022006;28;20290;-72
2022/03/29 00:16:26;;;;;;;0.67;0.67;;;;;;;;;;5025584;28;20214;-72
2022/03/29 00:19:13;;;;;;;1.00;1.00;;;;;;;;;;5028317;28;20330;-71
2022/03/29 00:22:02;;;;;;;1.33;0.90;;;;;;;;;;5026276;28;21105;-72
2022/03/29 00:24:48;;;;;;;1.73;1.10;;;;;;;;;;5021077;28;20333;-72
2022/03/29 00:27:36;;;;;;;0.90;0.80;;;;;;;;;;5023341;28;20351;-72
2022/03/29 00:30:23;;;;;;;1.00;1.00;;;;;;;;;;5022183;28;20212;-72
2022/03/29 00:33:10;;;;;;;1.13;1.03;;;;;;;;;;5023423;28;20311;-72
2022/03/29 00:35:57;;;;;;;1.07;1.03;;;;;;;;;;5020392;28;20277;-72
2022/03/29 00:38:46;;;;;;;1.27;1.17;;;;;;;;;;5025708;28;20940;-72
2022/03/29 00:41:33;;;;;;;1.30;1.20;;;;;;;;;;5028314;28;20286;-72
2022/03/29 00:44:29;;;;;;;0.90;0.90;;;;;;;;;;5022871;28;20219;-72
2022/03/29 00:47:16;;;;;;;1.30;1.30;;;;;;;;;;5021446;28;20610;-72
2022/03/29 00:50:03;;;;;;;0.70;0.70;;;;;;;;;;5018747;28;20207;-72
2022/03/29 00:52:50;;;;;;;1.10;1.00;;;;;;;;;;5024948;28;20253;-72
2022/03/29 00:55:39;;;;;;;0.83;0.83;;;;;;;;;;5027259;28;20213;-72
2022/03/29 00:58:27;;;;;;;0.97;0.90;;;;;;;;;;5023982;28;20221;-72
2022/03/29 01:01:15;;;;;;;0.70;0.70;;;;;;;;;;5024100;28;20310;-72
2022/03/29 01:04:02;;;;;;;0.70;0.70;;;;;;;;;;5022548;28;20209;-72
2022/03/29 01:06:49;;;;;;;1.43;1.17;;;;;;;;;;5021579;28;20221;-73
2022/03/29 01:09:36;;;;;;;1.33;0.80;;;;;;;;;;5023821;28;20211;-72
2022/03/29 01:12:24;;;;;;;0.77;0.77;;;;;;;;;;5026203;28;20213;-71
2022/03/29 01:15:11;;;;;;;0.83;0.83;;;;;;;;;;5020348;28;20205;-71
2022/03/29 01:17:57;;;;;;;0.73;0.73;;;;;;;;;;5024108;28;20300;-72
2022/03/29 01:20:47;;;;;;;1.13;0.90;;;;;;;;;;5022626;28;20230;-72
2022/03/29 01:23:38;;;;;;;0.93;0.93;;;;;;;;;;5016195;28;20241;-72
2022/03/29 01:26:26;;;;;;;1.07;1.00;;;;;;;;;;5024178;28;20217;-72
2022/03/29 01:29:14;;;;;;;0.97;0.97;;;;;;;;;;5020163;28;20260;-72
2022/03/29 01:32:04;;;;;;;0.93;0.80;;;;;;;;;;5020227;28;20291;-71
2022/03/29 01:34:52;;;;;;;0.70;0.70;;;;;;;;;;5023624;28;20217;-72
2022/03/29 01:37:39;;;;;;;0.80;0.80;;;;;;;;;;5019689;28;20416;-72
2022/03/29 01:40:28;;;;;;;0.83;0.83;;;;;;;;;;5022503;28;20237;-72
2022/03/29 01:43:15;;;;;;;0.80;0.70;;;;;;;;;;5021116;28;20210;-72
2022/03/29 01:46:03;;;;;;;0.80;0.80;;;;;;;;;;5019696;28;20244;-72
2022/03/29 01:48:50;;;;;;;1.00;1.00;;;;;;;;;;5021034;28;20238;-72
2022/03/29 01:51:37;;;;;;;0.70;0.70;;;;;;;;;;5023934;28;20604;-72
2022/03/29 01:54:24;;;;;;;0.67;0.67;;;;;;;;;;5024560;28;20634;-72
2022/03/29 01:57:13;;;;;;;1.00;1.00;;;;;;;;;;5021960;28;20245;-72
2022/03/29 02:03:06;;;;;;;0.73;0.73;;;;;;;;;;5023689;28;20690;-72
2022/03/29 02:05:53;;;;;;;1.80;0.70;;;;;;;;;;5020908;28;20247;-72
2022/03/29 02:08:40;;;;;;;0.80;0.80;;;;;;;;;;5020200;28;20663;-71
2022/03/29 02:11:27;;;;;;;0.70;0.70;;;;;;;;;;5020881;28;20221;-71
2022/03/29 02:14:15;;;;;;;0.73;0.73;;;;;;;;;;5019969;28;20211;-72
2022/03/29 02:17:02;;;;;;;1.80;0.90;;;;;;;;;;5023569;28;20248;-72
2022/03/29 02:19:49;;;;;;;1.10;1.00;;;;;;;;;;5017634;28;20372;-72
2022/03/29 02:22:36;;;;;;;0.83;0.80;;;;;;;;;;5024035;28;20594;-72
2022/03/29 02:25:23;;;;;;;1.27;0.77;;;;;;;;;;5022438;28;20703;-72
2022/03/29 02:28:10;;;;;;;0.83;0.80;;;;;;;;;;5023832;28;20757;-72
2022/03/29 02:30:58;;;;;;;0.80;0.80;;;;;;;;;;5028237;28;20210;-71
2022/03/29 02:33:45;;;;;;;1.27;0.87;;;;;;;;;;5030382;28;20555;-72
2022/03/29 02:36:32;;;;;;;0.80;0.80;;;;;;;;;;5024425;28;20256;-71
2022/03/29 02:39:19;;;;;;;0.77;0.77;;;;;;;;;;5023829;28;20721;-72
2022/03/29 02:42:07;;;;;;;0.73;0.73;;;;;;;;;;5025973;28;20403;-71
2022/03/29 02:44:54;;;;;;;0.60;0.60;;;;;;;;;;5025980;28;20312;-71
2022/03/29 02:47:43;;;;;;;2.00;1.07;;;;;;;;;;5009241;28;20240;-71
2022/03/29 02:50:30;;;;;;;1.00;0.90;;;;;;;;;;5004163;28;20695;-72
2022/03/29 02:53:17;;;;;;;1.00;0.90;;;;;;;;;;5004508;28;20702;-72
2022/03/29 02:56:04;;;;;;;0.80;0.80;;;;;;;;;;5005415;28;20254;-72
2022/03/29 02:58:52;;;;;;;0.80;0.80;;;;;;;;;;5008402;28;20305;-72
2022/03/29 03:01:39;;;;;;;0.87;0.87;;;;;;;;;;5006161;28;20272;-72
2022/03/29 03:04:27;;;;;;;1.00;1.00;;;;;;;;;;5005880;28;20206;-72
2022/03/29 03:07:14;;;;;;;1.33;0.80;;;;;;;;;;4999719;28;20219;-74
2022/03/29 03:10:01;;;;;;;0.90;0.90;;;;;;;;;;5004536;28;20238;-72
2022/03/29 03:12:49;;;;;;;1.03;1.03;;;;;;;;;;5008144;28;20364;-71
2022/03/29 03:15:36;;;;;;;2.03;1.30;;;;;;;;;;5007514;28;20210;-72
2022/03/29 03:18:23;;;;;;;2.40;1.77;;;;;;;;;;5004122;28;20221;-72
2022/03/29 03:21:12;;;;;;;2.43;1.77;;;;;;;;;;5005599;28;20308;-72
2022/03/29 03:23:59;;;;;;;2.80;1.93;;;;;;;;;;5003604;28;20219;-72
2022/03/29 03:26:46;;;;;;;2.23;2.03;;;;;;;;;;5003698;28;20253;-73
2022/03/29 03:29:33;;;;;;;4.27;2.17;;;;;;;;;;5003679;28;20211;-72
2022/03/29 03:32:20;;;;;;;3.37;2.83;;;;;;;;;;5003943;28;20222;-72
2022/03/29 03:35:08;;;;;;;3.57;2.53;;;;;;;;;;5003394;28;20361;-71
2022/03/29 03:37:56;;;;;;;3.37;2.87;;;;;;;;;;5003001;28;20230;-71
2022/03/29 03:40:43;;;;;;;4.70;2.90;;;;;;;;;;5000746;28;20250;-71
2022/03/29 03:43:30;;;;;;;3.80;3.00;;;;;;;;;;5001917;28;20207;-72
2022/03/29 03:46:17;;;;;;;5.00;2.90;;;;;;;;;;5012593;28;20267;-72
2022/03/29 03:49:04;;;;;;;4.07;3.10;;;;;;;;;;5026190;28;20264;-71
2022/03/29 03:51:51;;;;;;;3.30;3.00;;;;;;;;;;5023756;28;20916;-72
2022/03/29 03:54:39;;;;;;;4.00;3.37;;;;;;;;;;5026927;28;20671;-72
2022/03/29 03:57:26;;;;;;;3.27;2.93;;;;;;;;;;5025756;28;20202;-72
2022/03/29 04:00:14;;;;;;;3.43;3.13;;;;;;;;;;5025498;28;20296;-72
2022/03/29 04:03:01;;;;;;;3.73;3.07;;;;;;;;;;5026664;28;20340;-72
2022/03/29 04:05:48;;;;;;;3.30;2.80;;;;;;;;;;5023428;28;20206;-72
2022/03/29 04:08:35;;;;;;;3.57;2.83;;;;;;;;;;5024060;28;20726;-72
2022/03/29 04:11:23;;;;;;;3.53;3.10;;;;;;;;;;5024122;28;20270;-72
2022/03/29 04:14:10;;;;;;;4.90;3.03;;;;;;;;;;5029062;28;20293;-72
2022/03/29 04:16:57;;;;;;;3.53;2.83;;;;;;;;;;5025020;28;20292;-71
2022/03/29 04:19:44;;;;;;;3.33;2.80;;;;;;;;;;5021444;28;20302;-72
2022/03/29 04:22:31;;;;;;;3.33;3.03;;;;;;;;;;5024598;28;20570;-72
2022/03/29 04:25:18;;;;;;;3.30;3.00;;;;;;;;;;5023701;28;20618;-72
2022/03/29 04:28:07;;;;;;;2.63;2.43;;;;;;;;;;5018282;28;20239;-72
2022/03/29 04:30:55;;;;;;;2.90;2.70;;;;;;;;;;5024702;28;20285;-72
2022/03/29 04:33:44;;;;;;;4.07;2.80;;;;;;;;;;5023082;28;20215;-72
2022/03/29 04:36:30;;;;;;;3.17;2.93;;;;;;;;;;5020388;28;20206;-72
2022/03/29 04:39:17;;;;;;;2.70;2.50;;;;;;;;;;5025789;28;20278;-72
2022/03/29 04:42:05;;;;;;;3.00;2.70;;;;;;;;;;5023353;28;20217;-72
2022/03/29 04:44:53;;;;;;;3.20;2.60;;;;;;;;;;5020604;28;20246;-72
2022/03/29 04:47:40;;;;;;;4.10;2.77;;;;;;;;;;5018185;28;20236;-72
2022/03/29 04:50:29;;;;;;;4.93;2.47;;;;;;;;;;5022701;28;20207;-72
2022/03/29 04:53:16;;;;;;;2.67;2.47;;;;;;;;;;5021710;28;20238;-72
2022/03/29 04:56:04;;;;;;;2.67;2.47;;;;;;;;;;5025990;28;20284;-72
2022/03/29 04:58:51;;;;;;;2.40;2.20;;;;;;;;;;5023513;28;20293;-72
2022/03/29 05:01:40;;;;;;;2.23;2.13;;;;;;;;;;5018785;28;20238;-74
2022/03/29 05:04:27;;;;;;;2.97;2.30;;;;;;;;;;5021306;28;20265;-72
2022/03/29 05:07:14;;;;;;;2.30;2.10;;;;;;;;;;5024570;28;20207;-73
2022/03/29 05:10:01;;;;;;;2.50;2.30;;;;;;;;;;5022225;28;20207;-72
2022/03/29 05:12:49;;;;;;;2.53;2.33;;;;;;;;;;5023708;28;20210;-72
2022/03/29 05:15:36;;;;;;;2.40;2.20;;;;;;;;;;5022690;28;20242;-72
2022/03/29 05:18:25;;;;;;;3.37;2.50;;;;;;;;;;5024214;28;20728;-71
2022/03/29 05:21:12;;;;;;;3.63;2.23;;;;;;;;;;5023742;28;20222;-72
2022/03/29 05:23:59;;;;;;;2.37;2.17;;;;;;;;;;5021345;28;20691;-71
2022/03/29 05:26:46;;;;;;;2.53;2.33;;;;;;;;;;5026971;28;20769;-72
2022/03/29 05:29:33;;;;;;;3.50;2.10;;;;;;;;;;5019175;28;20245;-72
2022/03/29 05:32:20;;;;;;;2.30;2.10;;;;;;;;;;5017380;28;20206;-72
2022/03/29 05:35:10;;;;;;;2.47;2.27;;;;;;;;;;5025468;28;20296;-72
2022/03/29 05:37:58;;;;;;;3.40;2.03;;;;;;;;;;5025026;28;20276;-71
2022/03/29 05:40:45;;;;;;;2.33;2.00;;;;;;;;;;5023691;28;20222;-72
2022/03/29 05:43:32;;;;;;;2.10;2.00;;;;;;;;;;5023833;28;20241;-73
2022/03/29 05:49:26;;;;;;;2.10;2.00;;;;;;;;;;5018382;28;20611;-71
2022/03/29 05:52:14;;;;;;;2.43;2.23;;;;;;;;;;5022374;28;20304;-74
2022/03/29 05:55:01;;;;;;;2.10;2.00;;;;;;;;;;5023999;28;20757;-72
2022/03/29 05:57:49;;;;;;;1.80;1.70;;;;;;;;;;5027072;28;20249;-72
2022/03/29 06:00:36;;;;;;;1.97;1.87;;;;;;;;;;5021874;28;20211;-72
2022/03/29 06:03:23;;;;;;;2.33;2.13;;;;;;;;;;5023033;28;20296;-71
2022/03/29 06:06:10;;;;;;;1.93;1.40;;;;;;;;;;5022457;28;20204;-72
2022/03/29 06:08:58;;;;;;;2.07;1.90;;;;;;;;;;5020721;28;20222;-72
2022/03/29 06:11:46;;;;;;;2.27;2.03;;;;;;;;;;5021809;28;20934;-72
2022/03/29 06:14:32;;;;;;;2.10;1.90;;;;;;;;;;5021593;28;20527;-72
2022/03/29 06:17:19;;;;;;;2.93;1.70;;;;;;;;;;5029122;28;20356;-72
2022/03/29 06:20:09;;;;;;;1.63;1.53;;;;;;;;;;5026684;28;20218;-72
2022/03/29 06:22:56;;;;;;;1.57;1.47;;;;;;;;;;5023259;28;20204;-72
2022/03/29 06:25:44;;;;;;;3.77;1.73;;;;;;;;;;5021884;28;20294;-74
2022/03/29 06:28:31;;;;;;;3.03;1.80;;;;;;;;;;5025899;28;20223;-73
2022/03/29 06:31:18;;;;;;;1.70;1.60;;;;;;;;;;5023547;28;20259;-72
2022/03/29 06:34:05;;;;;;;2.20;2.07;;;;;;;;;;5024669;28;20219;-71
2022/03/29 06:36:54;;;;;;;1.60;1.53;;;;;;;;;;5022217;28;20215;-72
2022/03/29 06:39:41;;;;;;;1.47;1.33;;;;;;;;;;5022638;28;20554;-72
2022/03/29 06:42:29;;;;;;;1.60;1.50;;;;;;;;;;5019146;28;20701;-72
2022/03/29 06:45:16;;;;;;;1.83;1.57;;;;;;;;;;5018556;28;20233;-72
2022/03/29 06:48:04;;;;;;;2.10;1.50;;;;;;;;;;5022860;28;20757;-71
2022/03/29 06:50:51;;;;;;;2.87;1.60;;;;;;;;;;5022178;28;20208;-72
2022/03/29 06:53:38;;;;;;;1.30;1.20;;;;;;;;;;5022052;28;20312;-71
2022/03/29 06:56:28;;;;;;;1.40;1.30;;;;;;;;;;5021479;28;20291;-71
2022/03/29 06:59:16;;;;;;;1.73;1.63;;;;;;;;;;5020296;28;20587;-72
2022/03/29 07:02:04;;;;;;;1.60;1.50;;;;;;;;;;5021856;28;20515;-72
2022/03/29 07:04:51;;;;;;;1.93;1.40;;;;;;;;;;5021028;28;20213;-71
2022/03/29 07:07:39;;;;;;;1.33;1.23;;;;;;;;;;5021116;28;20211;-72
2022/03/29 07:13:30;;;;;;;3.17;2.00;;;;;;;;;;5018255;28;20209;-72
2022/03/29 07:16:18;;;;;;;1.87;1.70;;;;;;;;;;5024750;28;20213;-72
2022/03/29 07:19:08;;;;;;;2.40;1.90;;;;;;;;;;5031696;28;20215;-72
2022/03/29 07:21:56;;;;;;;1.83;1.73;;;;;;;;;;5022438;28;20602;-72
2022/03/29 07:24:43;;;;;;;2.40;1.77;;;;;;;;;;5024367;28;20246;-73
2022/03/29 07:27:30;;;;;;;2.70;1.47;;;;;;;;;;5026538;28;20212;-73
2022/03/29 07:30:17;;;;;;;2.93;1.73;;;;;;;;;;5028124;28;20221;-73
2022/03/29 07:33:06;;;;;;;1.80;1.60;;;;;;;;;;5024605;28;20255;-73
2022/03/29 07:35:54;;;;;;;3.37;1.90;;;;;;;;;;5025097;28;20315;-73
2022/03/29 07:38:41;;;;;;;3.43;1.53;;;;;;;;;;5022042;28;20204;-72
2022/03/29 07:41:28;;;;;;;2.17;1.60;;;;;;;;;;5026510;28;20341;-71
2022/03/29 07:44:17;;;;;;;3.37;1.80;;;;;;;;;;5024564;28;20214;-71
2022/03/29 07:47:05;;;;;;;2.60;2.00;;;;;;;;;;5022476;28;20252;-71
2022/03/29 07:49:53;;;;;;;1.50;1.40;;;;;;;;;;5021579;28;20630;-73
2022/03/29 07:52:41;;;;;;;2.20;1.70;;;;;;;;;;5024916;28;20708;-70
2022/03/29 07:55:28;;;;;;;3.03;1.57;;;;;;;;;;5027631;28;20214;-71
2022/03/29 07:58:16;;;;;;;1.53;1.40;;;;;;;;;;5020729;28;20212;-71
2022/03/29 08:01:03;;;;;;;1.63;1.53;;;;;;;;;;5025103;28;20231;-72
2022/03/29 08:03:51;;;;;;;1.60;1.40;;;;;;;;;;5024406;28;20218;-72
2022/03/29 08:06:39;;;;;;;1.30;1.30;;;;;;;;;;5023857;28;20205;-71
2022/03/29 08:09:27;;;;;;;1.60;1.50;;;;;;;;;;5023826;28;20209;-71
2022/03/29 08:12:14;;;;;;;3.03;1.53;;;;;;;;;;5028386;28;20298;-71
2022/03/29 08:15:01;;;;;;;1.47;1.30;;;;;;;;;;5024509;28;20292;-71
2022/03/29 08:17:48;;;;;;;2.70;1.40;;;;;;;;;;5022313;28;20238;-71
2022/03/29 08:20:36;;;;;;;1.53;1.37;;;;;;;;;;5026907;28;20221;-71
2022/03/29 08:23:25;;;;;;;3.37;1.67;;;;;;;;;;5021378;28;20815;-71
2022/03/29 08:26:12;;;;;;;2.10;1.90;;;;;;;;;;5024721;28;20211;-71
2022/03/29 08:28:59;;;;;;;2.00;1.80;;;;;;;;;;5021299;28;20247;-72
2022/03/29 08:31:47;;;;;;;2.87;1.50;;;;;;;;;;5019787;28;20212;-71
2022/03/29 08:34:34;;;;;;;2.20;1.70;;;;;;;;;;5023309;28;20595;-71
2022/03/29 08:37:21;;;;;;;2.90;2.00;;;;;;;;;;5027352;28;20277;-71
2022/03/29 08:40:12;;;;;;;1.70;1.60;;;;;;;;;;5021266;28;20305;-71
2022/03/29 08:43:00;;;;;;;2.17;1.50;;;;;;;;;;5026000;28;20236;-71
2022/03/29 08:45:50;;;;;;;1.53;1.43;;;;;;;;;;5017334;28;20253;-70
2022/03/29 08:48:37;;;;;;;1.57;1.37;;;;;;;;;;5022761;28;20622;-71
2022/03/29 08:51:24;;;;;;;1.50;1.40;;;;;;;;;;5024473;28;20210;-71
2022/03/29 08:54:12;;;;;;;1.43;1.23;;;;;;;;;;5020030;28;20345;-71
2022/03/29 08:57:00;;;;;;;1.07;0.97;;;;;;;;;;5018273;28;20206;-71
2022/03/29 08:59:47;;;;;;;1.33;1.23;;;;;;;;;;5024151;28;20638;-71
2022/03/29 09:02:35;;;;;;;1.60;1.20;;;;;;;;;;5021482;28;20260;-71
2022/03/29 09:05:24;;;;;;;1.30;1.20;;;;;;;;;;5025221;28;20263;-71
2022/03/29 09:08:13;;;;;;;1.13;1.10;;;;;;;;;;5020997;28;20206;-70
2022/03/29 09:11:02;;;;;;;1.20;1.10;;;;;;;;;;5026669;28;20671;-71
2022/03/29 09:14:02;;;;;;;1.87;0.97;;;;;;;;;;5023308;28;20347;-71
2022/03/29 09:16:51;;;;;;;1.33;1.10;;;;;;;;;;5018122;28;20216;-71
2022/03/29 09:19:49;;;;;;;1.07;1.00;;;;;;;;;;5020904;28;20225;-71
2022/03/29 09:22:42;;;;;;;0.73;0.73;;;;;;;;;;5023184;28;20263;-72
2022/03/29 09:25:36;;;;;;;1.77;0.90;;;;;;;;;;5015548;28;20213;-71
2022/03/29 09:28:22;;;;;;;1.50;0.93;;;;;;;;;;5024689;28;20681;-71
2022/03/29 09:31:20;;;;;;;1.07;1.00;;;;;;;;;;5022186;28;20221;-71
2022/03/29 09:34:15;;;;;;;1.13;0.90;;;;;;;;;;5015987;28;20210;-71
2022/03/29 09:37:03;;;;;;;0.93;0.93;;;;;;;;;;5023389;28;20235;-72
2022/03/29 09:39:51;;;;;;;1.13;0.90;;;;;;;;;;5020310;28;20292;-71
2022/03/29 09:42:39;;;;;;;0.93;0.83;;;;;;;;;;5021980;28;20260;-71
2022/03/29 09:45:42;;;;;;;1.07;0.80;;;;;;;;;;5023799;28;20674;-71
2022/03/29 09:48:33;;;;;;;0.70;0.70;;;;;;;;;;5021689;28;20263;-71
2022/03/29 09:51:22;;;;;;;0.90;0.90;;;;;;;;;;5019364;28;20617;-71
2022/03/29 09:54:10;;;;;;;1.67;0.80;;;;;;;;;;5020786;28;20243;-70
2022/03/29 09:56:57;;;;;;;1.13;0.70;;;;;;;;;;5019263;28;20206;-71
2022/03/29 09:59:48;;;;;;;0.83;0.50;;;;;;;;;;5021071;28;20215;-70
2022/03/29 10:02:37;;;;;;;0.70;0.70;;;;;;;;;;5018983;28;20728;-70
2022/03/29 10:05:26;;;;;;;1.00;0.87;;;;;;;;;;5024755;28;20228;-71
2022/03/29 10:11:21;;;;;;;0.57;0.57;;;;;;;;;;5025126;28;20213;-71
2022/03/29 10:14:12;;;;;;;0.90;0.60;;;;;;;;;;5022298;28;20623;-69
2022/03/29 10:16:59;;;;;;;0.67;0.67;;;;;;;;;;5024367;28;20211;-72
2022/03/29 10:19:48;;;;;;;1.27;0.87;;;;;;;;;;5019226;28;20289;-71
2022/03/29 10:22:40;;;;;;;0.50;0.50;;;;;;;;;;5025498;28;20358;-71
2022/03/29 10:25:28;;;;;;;0.50;0.50;;;;;;;;;;5019925;28;20669;-71
2022/03/29 10:28:15;;;;;;;0.40;0.40;;;;;;;;;;5024285;28;20236;-71
2022/03/29 10:31:02;;;;;;;0.50;0.50;;;;;;;;;;5022057;28;20300;-71
2022/03/29 10:34:13;;;;;;;0.60;0.50;;;;;;;;;;5020200;28;20284;-71
2022/03/29 10:37:07;;;;;;;0.63;0.30;;;;;;;;;;5020240;28;20335;-71
2022/03/29 10:39:56;;;;;;;0.37;0.37;;;;;;;;;;5020561;28;20269;-71
2022/03/29 10:42:45;;;;;;;0.40;0.40;;;;;;;;;;5023720;28;20225;-70
2022/03/29 10:45:32;;;;;;;0.80;0.40;;;;;;;;;;5019675;28;20713;-70
2022/03/29 10:48:19;;;;;;;0.40;0.40;;;;;;;;;;5021965;28;20554;-71
2022/03/29 10:51:06;;;;;;;0.40;0.40;;;;;;;;;;5025390;28;20217;-70
2022/03/29 10:53:53;;;;;;;0.40;0.40;;;;;;;;;;5024527;28;20356;-71
2022/03/29 10:56:56;;;;;;;0.10;0.10;;;;;;;;;;5027362;28;20201;-71
2022/03/29 10:59:43;;;;;;;0.50;0.50;;;;;;;;;;5020817;28;20202;-71
2022/03/29 11:02:32;;;;;;;0.30;0.30;;;;;;;;;;5025066;28;20729;-71
2022/03/29 11:05:19;;;;;;;0.30;0.30;;;;;;;;;;5026794;28;20201;-71
2022/03/29 11:08:12;;;;;;;0.60;0.40;;;;;;;;;;5026389;28;20281;-71
2022/03/29 11:11:00;;;;;;;0.30;0.30;;;;;;;;;;5024508;28;20296;-71
2022/03/29 11:13:48;;;;;;;0.57;0.40;;;;;;;;;;5024524;28;20304;-72
2022/03/29 11:16:35;;;;;;;0.30;0.30;;;;;;;;;;5031144;28;20555;-71
2022/03/29 11:19:42;;;;;;;1.10;0.20;;;;;;;;;;5020834;28;20206;-71
2022/03/29 11:22:43;;;;;;;0.40;0.33;;;;;;;;;;5023211;28;20236;-72
2022/03/29 11:25:38;;;;;;;0.20;0.20;;;;;;;;;;5019386;28;20209;-72
2022/03/29 11:28:26;;;;;;;0.30;0.30;;;;;;;;;;5026304;28;20214;-71
2022/03/29 11:31:15;;;;;;;0.97;0.37;;;;;;;;;;5024823;28;20285;-72
2022/03/29 11:34:02;;;;;;;0.30;0.30;;;;;;;;;;5021188;28;20209;-72
2022/03/29 11:36:49;;;;;;;0.63;0.30;;;;;;;;;;5023889;28;20215;-72
2022/03/29 11:39:36;;;;;;;0.40;0.40;;;;;;;;;;5023654;28;20221;-72
2022/03/29 11:42:24;;;;;;;0.20;0.20;;;;;;;;;;5022395;28;20308;-71
2022/03/29 11:45:12;;;;;;;0.40;0.40;;;;;;;;;;5024239;28;20216;-75
2022/03/29 11:48:07;;;;;;;0.20;0.20;;;;;;;;;;5023790;28;20209;-71
2022/03/29 11:50:56;;;;;;;1.07;0.23;;;;;;;;;;5025260;28;20216;-72
2022/03/29 11:53:43;;;;;;;0.30;0.30;;;;;;;;;;5021360;28;20586;-72
2022/03/29 11:56:36;;;;;;;0.30;0.30;;;;;;;;;;5024216;28;20296;-72
2022/03/29 11:59:23;;;;;;;0.23;0.23;;;;;;;;;;5023714;28;20206;-71
2022/03/29 12:02:10;;;;;;;0.63;0.40;;;;;;;;;;5026506;28;20224;-72
2022/03/29 12:04:58;;;;;;;0.60;0.50;;;;;;;;;;5022854;28;20267;-72
2022/03/29 12:07:46;;;;;;;0.40;0.40;;;;;;;;;;5023129;28;20598;-72
2022/03/29 12:10:34;;;;;;;0.57;0.30;;;;;;;;;;5025413;28;20321;-72
2022/03/29 12:13:21;;;;;;;0.43;0.40;;;;;;;;;;5025016;28;20327;-72
2022/03/29 12:16:23;;;;;;;0.20;0.20;;;;;;;;;;5025537;28;20271;-73
2022/03/29 12:19:11;;;;;;;0.20;0.20;;;;;;;;;;5025627;28;20220;-72
2022/03/29 12:22:02;;;;;;;0.30;0.30;;;;;;;;;;5021788;28;20359;-72
2022/03/29 12:24:54;;;;;;;0.20;0.20;;;;;;;;;;5021533;28;20241;-72
2022/03/29 12:27:42;;;;;;;0.20;0.20;;;;;;;;;;5022218;28;20615;-72
2022/03/29 12:30:29;;;;;;;0.30;0.30;;;;;;;;;;5021056;28;20703;-72
2022/03/29 12:33:16;;;;;;;0.17;0.17;;;;;;;;;;5023307;28;20211;-72
2022/03/29 12:36:06;;;;;;;0.27;0.27;;;;;;;;;;5026382;28;20280;-73
2022/03/29 12:38:56;;;;;;;0.30;0.30;;;;;;;;;;5020909;28;20237;-72
2022/03/29 12:41:51;;;;;;;0.50;0.30;;;;;;;;;;5020285;28;20319;-72
2022/03/29 12:44:43;;;;;;;0.30;0.30;;;;;;;;;;5024311;28;20281;-72
2022/03/29 12:47:32;;;;;;;0.30;0.30;;;;;;;;;;5023578;28;20813;-72
2022/03/29 12:50:19;;;;;;;0.27;0.27;;;;;;;;;;5022736;28;20210;-73
2022/03/29 12:53:08;;;;;;;0.40;0.30;;;;;;;;;;5022129;28;20283;-72
2022/03/29 12:55:57;;;;;;;0.20;0.20;;;;;;;;;;5018810;28;20358;-72
2022/03/29 12:58:44;;;;;;;0.30;0.30;;;;;;;;;;5021883;28;20249;-72
2022/03/29 13:01:32;;;;;;;0.20;0.20;;;;;;;;;;5022758;28;20208;-72
2022/03/29 13:04:19;;;;;;;0.40;0.40;;;;;;;;;;5025998;28;20232;-72
2022/03/29 13:07:07;;;;;;;0.30;0.13;;;;;;;;;;5024783;28;20675;-70
2022/03/29 13:10:00;;;;;;;0.30;0.30;;;;;;;;;;5024010;28;20209;-72
2022/03/29 13:12:56;;;;;;;0.20;0.20;;;;;;;;;;5020612;28;20205;-74
2022/03/29 13:15:47;;;;;;;0.30;0.30;;;;;;;;;;5024542;28;20286;-72
2022/03/29 13:18:39;;;;;;;0.20;0.20;;;;;;;;;;5018576;28;20217;-71
2022/03/29 13:21:27;;;;;;;0.37;0.30;;;;;;;;;;5022751;28;20228;-72
2022/03/29 13:24:16;;;;;;;0.20;0.20;;;;;;;;;;5020361;28;20692;-72
2022/03/29 13:27:05;;;;;;;0.50;0.50;;;;;;;;;;5020288;28;20332;-72
2022/03/29 13:29:54;;;;;;;0.20;0.20;;;;;;;;;;5016558;28;20631;-72
2022/03/29 13:32:41;;;;;;;1.13;0.20;;;;;;;;;;5023468;28;20202;-72
2022/03/29 13:35:28;;;;;;;0.33;0.23;;;;;;;;;;5020859;28;20263;-71
2022/03/29 13:38:14;;;;;;;0.30;0.30;;;;;;;;;;5021864;28;20291;-70
2022/03/29 13:41:01;;;;;;;0.30;0.30;;;;;;;;;;5015653;28;20225;-71
2022/03/29 13:43:48;;;;;;;0.20;0.20;;;;;;;;;;5022241;28;20590;-72
2022/03/29 13:46:37;;;;;;;0.27;0.27;;;;;;;;;;5022614;28;20323;-71
2022/03/29 13:49:26;;;;;;;0.20;0.20;;;;;;;;;;5018301;28;20229;-72
2022/03/29 13:52:13;;;;;;;0.30;0.30;;;;;;;;;;5020844;28;20232;-72
2022/03/29 13:55:00;;;;;;;0.20;0.20;;;;;;;;;;5023858;28;21242;-72
2022/03/29 13:57:47;;;;;;;1.03;0.30;;;;;;;;;;5020948;28;20216;-72
2022/03/29 14:00:35;;;;;;;1.83;0.30;;;;;;;;;;5022763;28;20700;-71
2022/03/29 14:03:24;;;;;;;0.77;0.40;;;;;;;;;;5022819;28;20319;-72
2022/03/29 14:06:11;;;;;;;0.37;0.37;;;;;;;;;;5024329;28;20312;-72
2022/03/29 14:08:58;;;;;;;0.23;0.20;;;;;;;;;;5017074;28;20287;-73
2022/03/29 14:11:45;;;;;;;0.30;0.30;;;;;;;;;;5024190;28;20212;-72
2022/03/29 14:14:32;;;;;;;0.20;0.20;;;;;;;;;;5020460;28;20203;-73
2022/03/29 14:17:19;;;;;;;0.30;0.30;;;;;;;;;;5021232;28;20228;-70
2022/03/29 14:20:08;;;;;;;0.87;0.30;;;;;;;;;;5021865;28;20210;-72
2022/03/29 14:22:55;;;;;;;0.20;0.20;;;;;;;;;;5027314;28;20315;-73
2022/03/29 14:25:42;;;;;;;0.40;0.40;;;;;;;;;;5024745;28;20280;-72
2022/03/29 14:28:30;;;;;;;0.20;0.20;;;;;;;;;;5025975;28;20305;-73
2022/03/29 14:31:17;;;;;;;0.30;0.30;;;;;;;;;;5026414;28;20630;-74
2022/03/29 14:34:05;;;;;;;0.20;0.20;;;;;;;;;;5023320;28;20576;-72
2022/03/29 14:36:53;;;;;;;0.30;0.30;;;;;;;;;;5024322;28;20216;-74
2022/03/29 14:39:41;;;;;;;0.30;0.30;;;;;;;;;;5024913;28;20295;-72
2022/03/29 14:42:28;;;;;;;0.33;0.33;;;;;;;;;;5024347;28;20550;-72
2022/03/29 14:45:17;;;;;;;0.30;0.30;;;;;;;;;;5026222;28;20678;-72
2022/03/29 14:48:05;;;;;;;0.30;0.30;;;;;;;;;;5023230;28;20435;-75
2022/03/29 14:50:52;;;;;;;0.40;0.40;;;;;;;;;;5022604;28;20633;-72
2022/03/29 14:53:41;;;;;;;0.50;0.50;;;;;;;;;;5018590;28;20227;-72
2022/03/29 14:56:28;;;;;;;0.40;0.40;;;;;;;;;;5021096;28;20208;-72
2022/03/29 14:59:15;;;;;;;0.33;0.30;;;;;;;;;;5023854;28;20205;-72
2022/03/29 15:02:02;;;;;;;0.40;0.40;;;;;;;;;;5026975;28;21675;-72
2022/03/29 15:04:49;;;;;;;0.23;0.23;;;;;;;;;;5026397;28;20224;-72
2022/03/29 15:07:36;;;;;;;0.50;0.50;;;;;;;;;;5024979;28;20212;-71
2022/03/29 15:10:26;;;;;;;0.40;0.40;;;;;;;;;;5023406;28;20290;-71
2022/03/29 15:13:14;;;;;;;1.50;0.40;;;;;;;;;;5025679;28;20215;-71
2022/03/29 15:16:00;;;;;;;0.30;0.30;;;;;;;;;;5023372;28;20270;-72
2022/03/29 15:18:47;;;;;;;0.83;0.57;;;;;;;;;;5028536;28;20218;-71
2022/03/29 15:21:34;;;;;;;0.40;0.40;;;;;;;;;;5021750;28;20673;-72
2022/03/29 15:24:21;;;;;;;0.50;0.40;;;;;;;;;;5026329;28;20247;-72
2022/03/29 15:27:10;;;;;;;0.60;0.50;;;;;;;;;;5022125;28;20264;-71
2022/03/29 15:29:57;;;;;;;0.50;0.50;;;;;;;;;;5021753;28;20212;-72
2022/03/29 15:32:44;;;;;;;0.47;0.47;;;;;;;;;;5024205;28;20216;-71
2022/03/29 15:35:31;;;;;;;0.43;0.43;;;;;;;;;;5026468;28;20207;-71
2022/03/29 15:38:18;;;;;;;0.63;0.63;;;;;;;;;;5020435;28;20216;-72
2022/03/29 15:41:05;;;;;;;0.50;0.50;;;;;;;;;;5027429;28;20208;-71
2022/03/29 15:43:53;;;;;;;0.50;0.50;;;;;;;;;;5024616;28;20265;-72
2022/03/29 15:46:40;;;;;;;0.40;0.40;;;;;;;;;;5025893;28;20239;-71
2022/03/29 15:49:27;;;;;;;0.50;0.50;;;;;;;;;;5022824;28;20744;-72
2022/03/29 15:52:14;;;;;;;1.90;0.60;;;;;;;;;;5020114;28;20361;-72
2022/03/29 15:55:04;;;;;;;0.50;0.50;;;;;;;;;;5023685;28;20208;-72
2022/03/29 15:57:51;;;;;;;1.23;0.50;;;;;;;;;;5026475;28;20205;-72
2022/03/29 16:00:39;;;;;;;0.63;0.63;;;;;;;;;;5026463;28;20261;-71
2022/03/29 16:03:26;;;;;;;0.63;0.63;;;;;;;;;;5025369;28;20306;-72
2022/03/29 16:06:13;;;;;;;0.93;0.40;;;;;;;;;;5021893;28;20207;-71
2022/03/29 16:09:00;;;;;;;0.37;0.37;;;;;;;;;;5022681;28;20566;-71
2022/03/29 16:11:48;;;;;;;0.40;0.40;;;;;;;;;;5025203;28;20217;-70
2022/03/29 16:14:37;;;;;;;0.43;0.43;;;;;;;;;;5023881;28;20207;-71
2022/03/29 16:17:26;;;;;;;0.37;0.37;;;;;;;;;;5021576;28;20201;-71
2022/03/29 16:20:15;;;;;;;0.30;0.30;;;;;;;;;;5022343;28;20272;-71
2022/03/29 16:23:02;;;;;;;0.47;0.47;;;;;;;;;;5026245;28;20678;-71
2022/03/29 16:25:49;;;;;;;0.30;0.30;;;;;;;;;;5022147;28;20749;-71
2022/03/29 16:28:36;;;;;;;0.30;0.30;;;;;;;;;;5022734;28;20256;-74
2022/03/29 16:31:22;;;;;;;0.30;0.30;;;;;;;;;;5023320;28;20687;-71
2022/03/29 16:34:14;;;;;;;0.33;0.33;;;;;;;;;;5023780;28;20785;-72
2022/03/29 16:37:01;;;;;;;0.30;0.30;;;;;;;;;;5025346;28;20256;-71
2022/03/29 16:39:47;;;;;;;0.40;0.40;;;;;;;;;;5020841;28;20297;-71
2022/03/29 16:42:35;;;;;;;0.20;0.20;;;;;;;;;;5019410;28;20310;-71
2022/03/29 16:45:22;;;;;;;0.30;0.30;;;;;;;;;;5023849;28;20714;-71
2022/03/29 16:48:09;;;;;;;0.30;0.30;;;;;;;;;;5023228;28;20268;-71
2022/03/29 16:50:57;;;;;;;0.20;0.20;;;;;;;;;;5022692;28;20279;-72
2022/03/29 16:53:45;;;;;;;0.27;0.27;;;;;;;;;;5020001;28;20221;-70
2022/03/29 16:56:32;;;;;;;0.30;0.30;;;;;;;;;;5022083;28;20731;-71
2022/03/29 16:59:20;;;;;;;0.50;0.50;;;;;;;;;;5019848;28;20213;-72
2022/03/29 17:02:07;;;;;;;0.40;0.40;;;;;;;;;;5023376;28;20207;-70